createdAt,value
2018-11-01T13:03:47.666Z,75.21
2018-11-01T13:04:47.659Z,74.67
2018-11-01T13:05:47.651Z,73.99
2018-11-01T13:06:47.643Z,71.94
2018-11-01T13:07:47.620Z,72.33
2018-11-01T13:08:47.611Z,73.69
2018-11-01T13:09:47.642Z,73.79
2018-11-01T13:10:47.653Z,72.63
2018-11-01T13:11:47.616Z,73.21
2018-11-01T13:12:47.610Z,72.72
2018-11-01T13:13:47.594Z,73.11
2018-11-01T13:14:47.589Z,72.53
2018-11-01T13:15:47.637Z,70.29
2018-11-01T13:16:47.582Z,71.36
2018-11-01T13:17:47.657Z,71.36
2018-11-01T13:18:47.573Z,72.33
2018-11-01T13:19:47.880Z,73.11
2018-11-01T13:20:47.562Z,72.17
2018-11-01T13:21:47.574Z,71.01
2018-11-01T13:22:47.561Z,70.04
2018-11-01T13:23:47.580Z,71.88
2018-11-01T13:24:47.560Z,71.30
2018-11-01T13:25:47.565Z,70.46
2018-11-01T13:26:47.556Z,69.68
2018-11-01T13:27:47.574Z,68.84
2018-11-01T13:28:47.556Z,68.64
2018-11-01T13:29:47.563Z,67.57
2018-11-01T13:30:47.538Z,67.96
2018-11-01T13:31:47.547Z,68.26
2018-11-01T13:32:47.536Z,68.45
2018-11-01T13:33:47.599Z,66.79
2018-11-01T13:34:47.697Z,66.24
2018-11-01T13:35:47.597Z,67.32
2018-11-01T13:36:47.594Z,67.02
2018-11-01T13:37:47.527Z,67.12
2018-11-01T13:38:47.547Z,66.08
2018-11-01T13:39:47.732Z,64.78
2018-11-01T13:40:47.901Z,65.69
2018-11-01T13:41:47.583Z,65.69
2018-11-01T13:42:48.328Z,65.59
2018-11-01T13:43:47.791Z,65.95
2018-11-01T13:44:47.525Z,67.32
2018-11-01T13:45:47.529Z,65.85
2018-11-01T13:46:47.544Z,64.39
2018-11-01T13:47:47.631Z,63.61
2018-11-01T13:48:47.524Z,64.00
2018-11-01T13:49:47.572Z,64.20
2018-11-01T13:50:47.520Z,65.04
2018-11-01T13:51:47.528Z,63.45
2018-11-01T13:52:47.524Z,64.62
2018-11-01T13:53:47.520Z,64.72
2018-11-01T13:54:47.677Z,64.81
2018-11-01T13:55:47.543Z,64.94
2018-11-01T13:56:47.523Z,64.84
2018-11-01T13:57:47.574Z,63.68
2018-11-01T13:58:47.519Z,62.80
2018-11-01T13:59:47.510Z,63.39
2018-11-01T14:00:47.525Z,62.12
2018-11-01T14:01:47.580Z,62.22
2018-11-01T14:02:47.775Z,61.83
2018-11-01T14:03:47.511Z,62.02
2018-11-01T14:04:47.503Z,62.35
2018-11-01T14:05:47.571Z,61.34
2018-11-01T14:06:47.535Z,61.47
2018-11-01T14:07:47.531Z,62.51
2018-11-01T14:08:47.513Z,62.32
2018-11-01T14:09:47.513Z,62.51
2018-11-01T14:10:47.520Z,62.90
2018-11-01T14:11:47.492Z,63.09
2018-11-01T14:12:47.524Z,62.90
2018-11-01T14:13:47.715Z,63.87
2018-11-01T14:14:47.604Z,62.80
2018-11-01T14:15:47.506Z,63.48
2018-11-01T14:16:47.498Z,63.39
2018-11-01T14:17:47.548Z,64.36
2018-11-01T14:18:47.550Z,64.55
2018-11-01T14:19:47.512Z,63.68
2018-11-01T14:20:47.547Z,63.48
2018-11-01T14:21:47.491Z,63.58
2018-11-01T14:22:47.499Z,63.39
2018-11-01T14:23:47.509Z,63.19
2018-11-01T14:24:47.547Z,62.99
2018-11-01T14:25:47.509Z,62.83
2018-11-01T14:26:47.505Z,62.63
2018-11-01T14:27:47.472Z,61.99
2018-11-01T14:28:47.481Z,61.92
2018-11-01T14:29:47.470Z,60.78
2018-11-01T14:30:47.495Z,61.07
2018-11-01T14:31:47.522Z,60.10
2018-11-01T14:32:47.487Z,60.46
2018-11-01T14:33:47.568Z,60.65
2018-11-01T14:34:47.493Z,61.53
2018-11-01T14:35:47.495Z,60.85
2018-11-01T14:36:47.488Z,60.65
2018-11-01T14:37:47.562Z,59.35
2018-11-01T14:38:47.474Z,59.13
2018-11-01T14:39:47.481Z,59.03
2018-11-01T14:40:47.470Z,59.00
2018-11-01T14:41:47.472Z,60.17
2018-11-01T14:42:47.468Z,59.39
2018-11-01T14:43:47.489Z,59.98
2018-11-01T14:44:47.466Z,60.08
2018-11-01T14:45:47.487Z,59.10
2018-11-01T14:46:47.537Z,58.94
2018-11-01T14:47:47.468Z,59.00
2018-11-01T14:48:47.468Z,59.13
2018-11-01T14:49:47.470Z,60.39
2018-11-01T14:50:47.514Z,58.81
2018-11-01T14:51:47.522Z,59.39
2018-11-01T14:52:47.575Z,59.78
2018-11-01T14:53:47.639Z,59.69
2018-11-01T14:54:48.775Z,59.69
2018-11-01T14:55:48.958Z,59.00
2018-11-01T14:56:48.606Z,59.03
2018-11-01T14:57:48.685Z,59.13
2018-11-01T14:58:48.642Z,58.84
2018-11-01T14:59:48.527Z,58.15
2018-11-01T15:00:47.462Z,58.28
2018-11-01T15:01:47.479Z,57.96
2018-11-01T15:02:47.450Z,58.25
2018-11-01T15:03:47.506Z,58.06
2018-11-01T15:04:47.430Z,59.10
2018-11-01T15:05:47.480Z,59.30
2018-11-01T15:06:47.460Z,59.00
2018-11-01T15:07:47.453Z,59.00
2018-11-01T15:08:47.447Z,58.94
2018-11-01T15:09:47.752Z,59.20
2018-11-01T15:10:47.419Z,58.94
2018-11-01T15:11:47.428Z,58.54
2018-11-01T15:12:47.456Z,58.81
2018-11-01T15:13:47.490Z,57.74
2018-11-01T15:14:47.446Z,57.45
2018-11-01T15:15:47.531Z,58.22
2018-11-01T15:16:47.450Z,57.93
2018-11-01T15:17:47.427Z,57.84
2018-11-01T15:18:47.431Z,58.06
2018-11-01T15:19:47.419Z,57.67
2018-11-01T15:20:47.509Z,58.06
2018-11-01T15:21:47.467Z,58.18
2018-11-01T15:22:47.419Z,57.60
2018-11-01T15:23:47.427Z,57.89
2018-11-01T15:24:47.413Z,58.97
2018-11-01T15:25:47.527Z,57.47
2018-11-01T15:26:47.468Z,57.76
2018-11-01T15:27:47.482Z,57.47
2018-11-01T15:28:47.430Z,57.79
2018-11-01T15:29:47.418Z,56.70
2018-11-01T15:30:47.530Z,56.57
2018-11-01T15:31:47.410Z,56.67
2018-11-01T15:32:47.463Z,56.57
2018-11-01T15:33:47.621Z,56.57
2018-11-01T15:34:47.421Z,56.79
2018-11-01T15:35:47.518Z,56.70
2018-11-01T15:36:47.423Z,56.70
2018-11-01T15:37:47.458Z,57.09
2018-11-01T15:38:47.465Z,57.06
2018-11-01T15:39:47.489Z,56.79
2018-11-01T15:40:47.520Z,56.47
2018-11-01T15:41:47.414Z,56.05
2018-11-01T15:42:47.411Z,56.57
2018-11-01T15:43:47.433Z,56.74
2018-11-01T15:44:47.415Z,56.93
2018-11-01T15:45:47.560Z,57.71
2018-11-01T15:46:47.383Z,57.61
2018-11-01T15:47:47.451Z,57.51
2018-11-01T15:48:47.408Z,57.78
2018-11-01T15:49:47.408Z,57.81
2018-11-01T15:50:47.650Z,58.07
2018-11-01T15:51:47.458Z,58.26
2018-11-01T15:52:47.382Z,59.23
2018-11-01T15:53:47.376Z,60.47
2018-11-01T15:54:47.393Z,62.51
2018-11-01T15:55:47.484Z,66.17
2018-11-01T15:56:47.381Z,68.18
2018-11-01T15:57:47.380Z,71.00
2018-11-01T15:58:47.381Z,73.58
2018-11-01T15:59:47.370Z,75.20
2018-11-01T16:00:47.358Z,77.04
2018-11-01T16:01:47.364Z,79.04
2018-11-01T16:02:47.408Z,79.91
2018-11-01T16:03:47.425Z,81.57
2018-11-01T16:04:47.348Z,82.24
2018-11-01T16:05:47.341Z,82.92
2018-11-01T16:06:47.453Z,83.02
2018-11-01T16:07:47.391Z,83.60
2018-11-01T16:08:47.343Z,84.09
2018-11-01T16:09:47.387Z,85.40
2018-11-01T16:10:47.329Z,85.60
2018-11-01T16:11:47.416Z,86.04
2018-11-01T16:12:47.331Z,86.23
2018-11-01T16:13:47.530Z,85.94
2018-11-01T16:14:47.333Z,86.43
2018-11-01T16:15:47.325Z,86.62
2018-11-01T16:16:47.313Z,86.38
2018-11-01T16:17:47.312Z,86.82
2018-11-01T16:18:47.319Z,85.94
2018-11-01T16:19:47.406Z,85.51
2018-11-01T16:20:47.304Z,85.22
2018-11-01T16:21:47.288Z,84.20
2018-11-01T16:22:47.273Z,85.07
2018-11-01T16:23:47.337Z,85.07
2018-11-01T16:24:47.292Z,84.58
2018-11-01T16:25:47.265Z,83.13
2018-11-01T16:26:47.299Z,83.13
2018-11-01T16:27:47.271Z,82.35
2018-11-01T16:28:47.282Z,81.58
2018-11-01T16:29:47.281Z,81.87
2018-11-01T16:30:47.266Z,80.62
2018-11-01T16:31:47.260Z,79.74
2018-11-01T16:32:47.245Z,79.55
2018-11-01T16:33:47.247Z,79.93
2018-11-01T16:34:47.253Z,80.03
2018-11-01T16:35:47.223Z,80.57
2018-11-01T16:36:47.282Z,80.80
2018-11-01T16:37:47.222Z,80.32
2018-11-01T16:38:47.228Z,80.22
2018-11-01T16:39:47.206Z,80.87
2018-11-01T16:40:47.259Z,79.84
2018-11-01T16:41:47.188Z,80.22
2018-11-01T16:42:47.435Z,80.19
2018-11-01T16:43:47.203Z,80.19
2018-11-01T16:44:47.213Z,80.38
2018-11-01T16:45:47.210Z,79.60
2018-11-01T16:46:47.186Z,79.93
2018-11-01T16:47:47.184Z,79.80
2018-11-01T16:48:47.176Z,80.38
2018-11-01T16:49:47.208Z,79.70
2018-11-01T16:50:47.228Z,80.67
2018-11-01T16:51:47.174Z,80.28
2018-11-01T16:52:47.468Z,80.09
2018-11-01T16:53:47.202Z,80.38
2018-11-01T16:54:47.141Z,79.99
2018-11-01T16:55:47.149Z,79.55
2018-11-01T16:56:47.142Z,79.16
2018-11-01T16:57:47.140Z,79.25
2018-11-01T16:58:47.151Z,78.87
2018-11-01T16:59:47.139Z,79.25
2018-11-01T17:00:47.132Z,78.48
2018-11-01T17:01:47.120Z,78.97
2018-11-01T17:02:47.169Z,79.64
2018-11-01T17:03:47.215Z,80.22
2018-11-01T17:04:47.104Z,79.93
2018-11-01T17:05:47.145Z,80.19
2018-11-01T17:06:47.113Z,80.22
2018-11-01T17:07:47.103Z,79.70
2018-11-01T17:08:47.261Z,79.60
2018-11-01T17:09:47.101Z,79.64
2018-11-01T17:10:47.089Z,80.22
2018-11-01T17:11:47.103Z,80.22
2018-11-01T17:12:47.071Z,79.25
2018-11-01T17:13:47.093Z,79.99
2018-11-01T17:14:47.054Z,80.57
2018-11-01T17:15:47.054Z,80.67
2018-11-01T17:16:47.117Z,80.67
2018-11-01T17:17:47.049Z,80.52
2018-11-01T17:18:47.040Z,81.00
2018-11-01T17:19:47.041Z,80.42
2018-11-01T17:20:47.041Z,80.52
2018-11-01T17:21:47.046Z,79.84
2018-11-01T17:22:47.083Z,79.45
2018-11-01T17:23:47.043Z,79.55
2018-11-01T17:24:47.107Z,80.03
2018-11-01T17:25:47.021Z,79.84
2018-11-01T17:26:47.023Z,80.77
2018-11-01T17:27:47.053Z,80.42
2018-11-01T17:28:47.022Z,80.87
2018-11-01T17:29:47.030Z,81.93
2018-11-01T17:30:46.981Z,81.93
2018-11-01T17:31:46.993Z,82.66
2018-11-01T17:32:47.005Z,83.00
2018-11-01T17:33:47.000Z,83.18
2018-11-01T17:34:46.998Z,82.47
2018-11-01T17:35:46.965Z,82.41
2018-11-01T17:36:46.979Z,82.37
2018-11-01T17:37:46.987Z,82.66
2018-11-01T17:38:46.972Z,83.15
2018-11-01T17:39:47.155Z,83.15
2018-11-01T17:40:46.963Z,83.58
2018-11-01T17:41:46.936Z,83.18
2018-11-01T17:42:46.945Z,82.80
2018-11-01T17:43:46.996Z,82.80
2018-11-01T17:44:46.983Z,82.60
2018-11-01T17:45:47.238Z,82.41
2018-11-01T17:46:46.927Z,82.60
2018-11-01T17:47:46.935Z,82.03
2018-11-01T17:48:46.958Z,81.83
2018-11-01T17:49:46.911Z,82.60
2018-11-01T17:50:46.919Z,82.45
2018-11-01T17:51:46.903Z,81.73
2018-11-01T17:52:46.902Z,81.87
2018-11-01T17:53:46.909Z,82.55
2018-11-01T17:54:46.884Z,82.75
2018-11-01T17:55:46.885Z,82.35
2018-11-01T17:56:46.894Z,81.39
2018-11-01T17:57:46.904Z,81.58
2018-11-01T17:58:46.865Z,81.10
2018-11-01T17:59:46.888Z,81.68
2018-11-01T18:00:46.861Z,81.77
2018-11-01T18:01:46.989Z,81.58
2018-11-01T18:02:46.930Z,81.48
2018-11-01T18:03:46.856Z,81.10
2018-11-01T18:04:46.837Z,80.90
2018-11-01T18:05:46.834Z,81.58
2018-11-01T18:06:46.938Z,81.77
2018-11-01T18:07:46.833Z,81.10
2018-11-01T18:08:46.834Z,80.38
2018-11-01T18:09:46.839Z,80.90
2018-11-01T18:10:46.801Z,81.39
2018-11-01T18:11:47.073Z,81.58
2018-11-01T18:12:46.808Z,79.74
2018-11-01T18:13:46.821Z,79.93
2018-11-01T18:14:46.785Z,80.32
2018-11-01T18:15:46.789Z,80.52
2018-11-01T18:16:46.899Z,80.71
2018-11-01T18:17:46.811Z,80.13
2018-11-01T18:18:46.788Z,80.32
2018-11-01T18:19:46.775Z,80.03
2018-11-01T18:20:46.770Z,80.42
2018-11-01T18:21:46.791Z,80.22
2018-11-01T18:22:46.755Z,81.00
2018-11-01T18:23:46.792Z,80.80
2018-11-01T18:24:46.752Z,79.74
2018-11-01T18:25:46.842Z,79.50
2018-11-01T18:26:47.042Z,79.80
2018-11-01T18:27:46.798Z,79.60
2018-11-01T18:28:46.806Z,80.77
2018-11-01T18:29:46.732Z,80.67
2018-11-01T18:30:46.793Z,80.71
2018-11-01T18:31:46.844Z,80.62
2018-11-01T18:32:46.903Z,80.62
2018-11-01T18:33:46.757Z,79.84
2018-11-01T18:34:46.879Z,80.22
2018-11-01T18:35:46.722Z,79.93
2018-11-01T18:36:46.707Z,79.84
2018-11-01T18:37:46.864Z,80.03
2018-11-01T18:38:46.697Z,80.42
2018-11-01T18:39:46.700Z,80.71
2018-11-01T18:40:46.676Z,80.62
2018-11-01T18:41:46.685Z,80.90
2018-11-01T18:42:46.835Z,80.62
2018-11-01T18:43:46.674Z,81.58
2018-11-01T18:44:46.673Z,81.48
2018-11-01T18:45:46.667Z,80.71
2018-11-01T18:46:46.667Z,80.52
2018-11-01T18:47:46.641Z,81.73
2018-11-01T18:48:46.666Z,82.12
2018-11-01T18:49:46.639Z,82.41
2018-11-01T18:50:46.650Z,82.47
2018-11-01T18:51:46.647Z,83.92
2018-11-01T18:52:46.684Z,83.25
2018-11-01T18:53:46.874Z,83.34
2018-11-01T18:54:46.701Z,83.34
2018-11-01T18:55:46.603Z,83.09
2018-11-01T18:56:46.602Z,83.25
2018-11-01T18:57:46.597Z,83.15
2018-11-01T18:58:46.857Z,82.60
2018-11-01T18:59:46.603Z,82.70
2018-11-01T19:00:46.728Z,82.90
2018-11-01T19:01:46.643Z,83.00
2018-11-01T19:02:46.582Z,83.44
2018-11-01T19:03:46.574Z,84.21
2018-11-01T19:04:46.587Z,84.69
2018-11-01T19:05:46.567Z,85.18
2018-11-01T19:06:46.616Z,84.50
2018-11-01T19:07:46.549Z,84.99
2018-11-01T19:08:46.608Z,85.37
2018-11-01T19:09:46.560Z,84.64
2018-11-01T19:10:46.559Z,85.13
2018-11-01T19:11:46.541Z,84.60
2018-11-01T19:12:46.532Z,85.18
2018-11-01T19:13:46.638Z,85.47
2018-11-01T19:14:46.724Z,85.76
2018-11-01T19:15:46.525Z,85.76
2018-11-01T19:16:46.505Z,85.76
2018-11-01T19:17:46.572Z,86.34
2018-11-01T19:18:46.487Z,85.86
2018-11-01T19:19:46.624Z,86.24
2018-11-01T19:20:46.488Z,86.73
2018-11-01T19:21:46.568Z,87.21
2018-11-01T19:22:46.488Z,86.82
2018-11-01T19:23:46.492Z,86.15
2018-11-01T19:24:46.485Z,86.63
2018-11-01T19:25:46.596Z,86.92
2018-11-01T19:26:46.567Z,88.95
2018-11-01T19:27:46.467Z,91.28
2018-11-01T19:28:46.456Z,93.65
2018-11-01T19:29:46.470Z,94.91
2018-11-01T19:30:46.536Z,95.29
2018-11-01T19:31:46.435Z,95.78
2018-11-01T19:32:46.483Z,96.17
2018-11-01T19:33:46.463Z,96.41
2018-11-01T19:34:46.426Z,96.99
2018-11-01T19:35:46.425Z,98.15
2018-11-01T19:36:46.421Z,98.15
2018-11-01T19:37:46.458Z,99.16
2018-11-01T19:38:46.402Z,99.69
2018-11-01T19:39:46.461Z,99.55
2018-11-01T19:40:46.409Z,99.65
2018-11-01T19:41:46.484Z,99.60
2018-11-01T19:42:46.383Z,99.89
2018-11-01T19:43:46.390Z,99.46
2018-11-01T19:44:46.380Z,99.65
2018-11-01T19:45:46.418Z,99.84
2018-11-01T19:46:46.374Z,99.99
2018-11-01T19:47:46.361Z,99.99
2018-11-01T19:48:46.354Z,99.99
2018-11-01T19:49:46.401Z,99.99
2018-11-01T19:50:46.352Z,99.51
2018-11-01T19:51:46.332Z,99.74
2018-11-01T19:52:46.337Z,97.52
2018-11-01T19:53:46.317Z,97.72
2018-11-01T19:54:46.317Z,97.81
2018-11-01T19:55:46.356Z,96.17
2018-11-01T19:56:46.303Z,96.17
2018-11-01T19:57:46.288Z,95.88
2018-11-01T19:58:46.314Z,95.01
2018-11-01T19:59:46.296Z,95.01
2018-11-01T20:00:46.287Z,95.10
2018-11-01T20:01:46.295Z,94.91
2018-11-01T20:02:46.315Z,95.01
2018-11-01T20:03:46.254Z,94.82
2018-11-01T20:04:46.253Z,95.30
2018-11-01T20:05:46.246Z,95.78
2018-11-01T20:06:46.243Z,95.88
2018-11-01T20:07:46.250Z,96.07
2018-11-01T20:08:46.262Z,95.49
2018-11-01T20:09:46.224Z,95.78
2018-11-01T20:10:46.239Z,95.01
2018-11-01T20:11:46.248Z,94.53
2018-11-01T20:12:46.212Z,94.82
2018-11-01T20:13:46.200Z,94.53
2018-11-01T20:14:46.329Z,94.82
2018-11-01T20:15:46.218Z,95.10
2018-11-01T20:16:46.185Z,94.33
2018-11-01T20:17:46.193Z,93.75
2018-11-01T20:18:46.257Z,91.91
2018-11-01T20:19:46.303Z,92.21
2018-11-01T20:20:46.147Z,91.91
2018-11-01T20:21:46.221Z,91.91
2018-11-01T20:22:46.154Z,92.11
2018-11-01T20:23:46.188Z,91.43
2018-11-01T20:24:46.146Z,91.24
2018-11-01T20:25:46.193Z,91.33
2018-11-01T20:26:46.135Z,91.43
2018-11-01T20:27:46.148Z,91.24
2018-11-01T20:28:46.115Z,91.05
2018-11-01T20:29:46.114Z,90.95
2018-11-01T20:30:46.130Z,91.14
2018-11-01T20:31:46.179Z,90.61
2018-11-01T20:32:46.099Z,89.84
2018-11-01T20:33:46.229Z,88.39
2018-11-01T20:34:46.065Z,87.85
2018-11-01T20:35:46.096Z,87.43
2018-11-01T20:36:46.076Z,87.81
2018-11-01T20:37:46.127Z,88.29
2018-11-01T20:38:46.309Z,88.97
2018-11-01T20:39:46.046Z,88.78
2018-11-01T20:40:46.035Z,89.26
2018-11-01T20:41:46.042Z,89.07
2018-11-01T20:42:46.042Z,89.55
2018-11-01T20:43:46.291Z,89.45
2018-11-01T20:44:46.018Z,89.17
2018-11-01T20:45:46.001Z,89.45
2018-11-01T20:46:45.995Z,88.01
2018-11-01T20:47:46.009Z,88.39
2018-11-01T20:48:46.006Z,89.07
2018-11-01T20:49:45.987Z,89.45
2018-11-01T20:50:46.006Z,89.26
2018-11-01T20:51:45.975Z,89.65
2018-11-01T20:52:45.976Z,89.84
2018-11-01T20:53:45.961Z,90.52
2018-11-01T20:54:46.192Z,90.33
2018-11-01T20:55:45.971Z,90.33
2018-11-01T20:56:45.927Z,90.03
2018-11-01T20:57:46.109Z,90.52
2018-11-01T20:58:45.939Z,90.33
2018-11-01T20:59:46.031Z,90.91
2018-11-01T21:00:45.971Z,91.49
2018-11-01T21:01:45.897Z,91.83
2018-11-01T21:02:45.891Z,93.18
2018-11-01T21:03:45.899Z,93.76
2018-11-01T21:04:45.906Z,94.14
2018-11-01T21:05:45.894Z,94.72
2018-11-01T21:06:45.870Z,94.43
2018-11-01T21:07:45.880Z,95.01
2018-11-01T21:08:45.875Z,94.92
2018-11-01T21:09:45.852Z,95.78
2018-11-01T21:10:46.143Z,95.83
2018-11-01T21:11:46.114Z,95.88
2018-11-01T21:12:45.918Z,95.88
2018-11-01T21:13:45.838Z,95.74
2018-11-01T21:14:45.855Z,96.75
2018-11-01T21:15:45.942Z,96.51
2018-11-01T21:16:45.887Z,96.70
2018-11-01T21:17:45.811Z,97.38
2018-11-01T21:18:45.845Z,97.77
2018-11-01T21:19:45.789Z,97.57
2018-11-01T21:20:46.118Z,98.25
2018-11-01T21:21:45.788Z,98.05
2018-11-01T21:22:45.771Z,98.54
2018-11-01T21:23:45.788Z,98.34
2018-11-01T21:24:47.862Z,99.11
2018-11-01T21:25:45.758Z,99.40
2018-11-01T21:26:45.735Z,99.31
2018-11-01T21:27:45.742Z,99.69
2018-11-01T21:28:45.719Z,99.40
2018-11-01T21:29:45.779Z,99.88
2018-11-01T21:30:45.728Z,99.99
2018-11-01T21:31:45.724Z,99.69
2018-11-01T21:32:45.757Z,99.60
2018-11-01T21:33:45.702Z,99.60
2018-11-01T21:34:45.713Z,99.21
2018-11-01T21:35:45.728Z,98.54
2018-11-01T21:36:45.685Z,99.21
2018-11-01T21:37:45.691Z,98.92
2018-11-01T21:38:45.723Z,99.21
2018-11-01T21:39:45.648Z,98.92
2018-11-01T21:40:45.713Z,98.63
2018-11-01T21:41:45.634Z,98.30
2018-11-01T21:42:45.935Z,98.73
2018-11-01T21:43:45.628Z,98.54
2018-11-01T21:44:45.699Z,99.50
2018-11-01T21:45:45.639Z,99.50
2018-11-01T21:46:45.629Z,99.31
2018-11-01T21:47:45.615Z,99.40
2018-11-01T21:48:45.609Z,99.50
2018-11-01T21:49:45.662Z,99.31
2018-11-01T21:50:45.602Z,99.69
2018-11-01T21:51:45.587Z,99.60
2018-11-01T21:52:45.600Z,99.40
2018-11-01T21:53:45.627Z,99.11
2018-11-01T21:54:45.579Z,99.40
2018-11-01T21:55:45.545Z,99.40
2018-11-01T21:56:45.550Z,99.40
2018-11-01T21:57:45.553Z,99.31
2018-11-01T21:58:45.646Z,99.11
2018-11-01T21:59:45.523Z,99.31
2018-11-01T22:00:45.544Z,99.21
2018-11-01T22:01:45.568Z,99.50
2018-11-01T22:02:45.532Z,99.50
2018-11-01T22:03:45.622Z,99.45
2018-11-01T22:04:45.552Z,99.50
2018-11-01T22:05:45.513Z,99.65
2018-11-01T22:06:45.510Z,99.60
2018-11-01T22:07:45.487Z,99.79
2018-11-01T22:08:45.477Z,99.88
2018-11-01T22:09:45.716Z,99.40
2018-11-01T22:10:45.525Z,99.50
2018-11-01T22:11:45.483Z,99.55
2018-11-01T22:12:45.467Z,99.02
2018-11-01T22:13:45.445Z,99.36
2018-11-01T22:14:45.438Z,99.26
2018-11-01T22:15:45.697Z,99.31
2018-11-01T22:16:45.437Z,99.84
2018-11-01T22:17:45.423Z,99.88
2018-11-01T22:18:45.400Z,99.99
2018-11-01T22:19:45.440Z,99.99
2018-11-01T22:20:45.510Z,99.99
2018-11-01T22:21:45.398Z,99.99
2018-11-01T22:22:45.388Z,99.99
2018-11-01T22:23:45.379Z,99.99
2018-11-01T22:24:45.378Z,99.99
2018-11-01T22:25:45.371Z,99.99
2018-11-01T22:26:45.459Z,99.99
2018-11-01T22:27:45.379Z,99.99
2018-11-01T22:28:45.464Z,99.99
2018-11-01T22:29:45.338Z,99.99
2018-11-01T22:30:45.315Z,99.99
2018-11-01T22:31:45.316Z,99.99
2018-11-01T22:32:45.336Z,99.99
2018-11-01T22:33:45.313Z,99.99
2018-11-01T22:34:45.320Z,99.99
2018-11-01T22:35:45.312Z,99.99
2018-11-01T22:36:45.443Z,99.99
2018-11-01T22:37:45.278Z,99.99
2018-11-01T22:38:45.413Z,99.99
2018-11-01T22:39:45.329Z,99.99
2018-11-01T22:40:45.274Z,99.99
2018-11-01T22:41:45.553Z,99.99
2018-11-01T22:42:45.258Z,99.99
2018-11-01T22:43:45.245Z,99.99
2018-11-01T22:44:45.253Z,99.99
2018-11-01T22:45:45.228Z,99.99
2018-11-01T22:46:45.222Z,99.99
2018-11-01T22:47:45.224Z,99.99
2018-11-01T22:48:45.211Z,99.99
2018-11-01T22:49:45.242Z,99.99
2018-11-01T22:50:45.195Z,99.99
2018-11-01T22:51:45.212Z,99.99
2018-11-01T22:52:45.332Z,99.99
2018-11-01T22:53:45.202Z,99.99
2018-11-01T22:54:45.164Z,99.99
2018-11-01T22:55:45.190Z,99.99
2018-11-01T22:56:45.141Z,99.99
2018-11-01T22:57:45.174Z,99.99
2018-11-01T22:58:45.265Z,99.99
2018-11-01T22:59:45.184Z,99.99
2018-11-01T23:00:45.145Z,99.99
2018-11-01T23:01:45.126Z,99.99
2018-11-01T23:02:45.121Z,99.99
2018-11-01T23:03:45.231Z,99.99
2018-11-01T23:04:45.105Z,99.99
2018-11-01T23:05:45.110Z,99.99
2018-11-01T23:06:45.113Z,99.99
2018-11-01T23:07:45.099Z,99.99
2018-11-01T23:08:45.066Z,99.99
2018-11-01T23:09:45.072Z,99.99
2018-11-01T23:10:45.084Z,99.99
2018-11-01T23:11:45.057Z,99.99
2018-11-01T23:12:45.043Z,99.99
2018-11-01T23:13:45.059Z,99.99
2018-11-01T23:14:45.084Z,99.99
2018-11-01T23:15:45.054Z,99.99
2018-11-01T23:16:45.064Z,99.99
2018-11-01T23:17:45.022Z,99.99
2018-11-01T23:18:45.005Z,99.99
2018-11-01T23:19:45.226Z,99.99
2018-11-01T23:20:44.999Z,99.99
2018-11-01T23:21:45.008Z,99.99
2018-11-01T23:22:45.006Z,99.99
2018-11-01T23:23:44.973Z,99.99
2018-11-01T23:24:45.271Z,99.99
2018-11-01T23:25:44.973Z,99.99
2018-11-01T23:26:44.986Z,99.99
2018-11-01T23:27:44.931Z,99.99
2018-11-01T23:28:44.959Z,99.99
2018-11-01T23:29:44.951Z,99.99
2018-11-01T23:30:45.240Z,99.99
2018-11-01T23:31:44.934Z,99.99
2018-11-01T23:32:44.919Z,99.99
2018-11-01T23:33:44.929Z,99.99
2018-11-01T23:34:44.902Z,99.99
2018-11-01T23:35:44.885Z,99.99
2018-11-01T23:36:45.336Z,99.99
2018-11-01T23:37:44.881Z,99.99
2018-11-01T23:38:44.867Z,99.99
2018-11-01T23:39:44.877Z,99.99
2018-11-01T23:40:44.855Z,99.99
2018-11-01T23:41:44.861Z,99.99
2018-11-01T23:42:44.840Z,99.99
2018-11-01T23:43:44.852Z,99.99
2018-11-01T23:44:44.847Z,99.99
2018-11-01T23:45:44.829Z,99.99
2018-11-01T23:46:44.819Z,99.99
2018-11-01T23:47:44.815Z,99.99
2018-11-01T23:48:44.820Z,99.99
2018-11-01T23:49:44.843Z,99.99
2018-11-01T23:50:44.812Z,99.99
2018-11-01T23:51:44.800Z,99.99
2018-11-01T23:52:44.766Z,99.99
2018-11-01T23:53:44.773Z,99.99
2018-11-01T23:54:44.773Z,99.99
2018-11-01T23:55:44.772Z,99.99
2018-11-01T23:56:44.760Z,99.99
2018-11-01T23:57:45.058Z,99.99
2018-11-01T23:58:44.721Z,99.99
2018-11-01T23:59:44.738Z,99.99
